Hyak — WX9439 — position and weather

sailwx.info

Track history (hours):
 
Tides and Currents Weather Stations Pressure Air Temp Water Temp Dewpoint Dewpoint Depression Visibility Wind Speed Wind Dir Waves Ship Positions

Hyak

Owner: WASHINGTON, STATE OF; Dept. of Transportation, OLYMPIA, WA. More information available from US FCC via Universal Licensing System and Coast Guard Vessel Documentation Center.

Last reported at 2018-Jun-24 03:29 UTC. Time now 2018-Jun-24 03:34 UTC.
Position N 48°30' W 122°41'.

Length 116 m; draft 5.6 m.

Type: Passenger vessel. MMSI: 366773030.

Date/timePositionNaut miles runAvg speedWind from/ knotsBaromVisibWave heightAir tempDewpointWater temp
2018-Jun-24 03:29N 48°30' W 122°41'0 0.0
2018-Jun-23 21:29N 48°30' W 122°41'0 0.6
2018-Jun-23 20:58N 48°31' W 122°40'3113.5
2018-Jun-23 18:40N 47°60' W 122°36'415.1
2018-Jun-23 18:25N 47°57' W 122°32'716.3
2018-Jun-23 18:00N 47°51' W 122°27'917.1
2018-Jun-23 17:30N 47°43' W 122°27'714.9
2018-Jun-23 17:00N 47°36' W 122°21'2 3.5
2018-Jun-23 16:30N 47°36' W 122°23'715.0
2018-Jun-23 16:00N 47°35' W 122°34'3 5.0
2018-Jun-23 15:30N 47°33' W 122°37'611.6
2018-Jun-23 15:00N 47°35' W 122°29'611.8
2018-Jun-23 14:30N 47°36' W 122°20'3 6.1
2018-Jun-23 14:00N 47°36' W 122°25'713.4
2018-Jun-23 13:30N 47°35' W 122°35'2 4.5
2018-Jun-23 12:59N 47°34' W 122°38'0 0.0
2018-Jun-23 12:30N 47°34' W 122°38'0 0.0
2018-Jun-23 11:58N 47°34' W 122°38'0 0.0
2018-Jun-23 11:25N 47°34' W 122°38'0 0.0
2018-Jun-23 10:58N 47°34' W 122°38'0 0.0
2018-Jun-23 10:30N 47°34' W 122°38'0 0.0
2018-Jun-23 10:00N 47°34' W 122°38'0 0.0
2018-Jun-23 09:30N 47°34' W 122°38'0 0.0
2018-Jun-23 08:59N 47°34' W 122°38'510.4
2018-Jun-23 08:30N 47°34' W 122°30'713.7
2018-Jun-23 08:00N 47°36' W 122°20'2 3.5
2018-Jun-23 07:30N 47°36' W 122°23'613.0
2018-Jun-23 07:00N 47°35' W 122°32'4 5.7
2018-Jun-23 06:23N 47°33' W 122°37'411.5
2018-Jun-23 06:01N 47°34' W 122°31'714.9
2018-Jun-23 05:30N 47°36' W 122°20'0 0.0
2018-Jun-23 05:00N 47°36' W 122°20'611.9
2018-Jun-23 04:30N 47°34' W 122°29'6 8.5
2018-Jun-23 03:48N 47°34' W 122°38'311.2
2018-Jun-23 03:30N 47°36' W 122°34'713.5
2018-Jun-23 03:00N 47°36' W 122°24'1 2.5
2018-Jun-23 02:31N 47°36' W 122°22'714.7
2018-Jun-23 02:00N 47°35' W 122°33'4 6.7
2018-Jun-23 01:28N 47°34' W 122°38'4 9.7
2018-Jun-23 01:01N 47°34' W 122°31'714.8
2018-Jun-23 00:30N 47°36' W 122°20'2 3.4
2018-Jun-23 00:00N 47°36' W 122°23'714.2
2018-Jun-22 23:31N 47°36' W 122°33'3 4.1
2018-Jun-22 22:41N 47°34' W 122°37'314.5
2018-Jun-22 22:30N 47°35' W 122°34'714.2
2018-Jun-22 22:01N 47°36' W 122°24'2 4.8
2018-Jun-22 21:30N 47°36' W 122°20'713.2
2018-Jun-22 21:00N 47°34' W 122°30'510.2
2018-Jun-22 20:29N 47°34' W 122°38'4 7.8
2018-Jun-22 20:01N 47°35' W 122°33'713.5
2018-Jun-22 19:30N 47°36' W 122°23'1 1.8
2018-Jun-22 19:01N 47°36' W 122°21'815.1
2018-Jun-22 18:30N 47°35' W 122°32'4 7.0
2018-Jun-22 17:59N 47°34' W 122°38'4 9.0
2018-Jun-22 17:31N 47°34' W 122°31'814.8
2018-Jun-22 17:00N 47°36' W 122°20'2 4.2
2018-Jun-22 16:30N 47°36' W 122°24'713.7
2018-Jun-22 16:00N 47°36' W 122°33'3 6.5
2018-Jun-22 15:30N 47°34' W 122°37'611.6
2018-Jun-22 15:00N 47°35' W 122°29'612.0
2018-Jun-22 14:30N 47°36' W 122°20'3 5.4
2018-Jun-22 14:00N 47°36' W 122°24'815.0
2018-Jun-22 13:30N 47°34' W 122°36'1 3.0
2018-Jun-22 13:00N 47°34' W 122°38'0 0.0
2018-Jun-22 12:30N 47°34' W 122°38'0 0.0
2018-Jun-22 11:58N 47°34' W 122°38'0 0.0
2018-Jun-22 11:28N 47°34' W 122°38'0 0.0
2018-Jun-22 11:00N 47°34' W 122°38'0 0.0
2018-Jun-22 10:30N 47°34' W 122°38'0 0.0
2018-Jun-22 10:00N 47°34' W 122°38'0 0.0
2018-Jun-22 09:30N 47°34' W 122°38'0 0.0
2018-Jun-22 09:00N 47°34' W 122°38'3 7.0
2018-Jun-22 08:30N 47°36' W 122°33'713.6
2018-Jun-22 08:00N 47°36' W 122°23'1 1.6
2018-Jun-22 07:30N 47°36' W 122°22'714.5
2018-Jun-22 07:00N 47°35' W 122°32'4 7.2
2018-Jun-22 06:30N 47°34' W 122°38'4 8.9
2018-Jun-22 06:00N 47°34' W 122°31'714.5
2018-Jun-22 05:30N 47°36' W 122°20'0 0.0
2018-Jun-22 04:58N 47°36' W 122°20'613.3
2018-Jun-22 04:31N 47°34' W 122°29'611.3
2018-Jun-22 04:00N 47°34' W 122°38'4 7.6
2018-Jun-22 03:30N 47°35' W 122°32'714.1
2018-Jun-22 03:01N 47°36' W 122°22'0 0.8
2018-Jun-22 02:30N 47°36' W 122°22'715.0
2018-Jun-22 02:00N 47°35' W 122°33'4 7.0
2018-Jun-22 01:29N 47°34' W 122°38'5 9.7
2018-Jun-22 01:01N 47°34' W 122°31'713.9
2018-Jun-22 00:29N 47°36' W 122°20'1 2.9
2018-Jun-22 00:00N 47°36' W 122°22'714.5
2018-Jun-21 23:30N 47°36' W 122°33'4 5.6
2018-Jun-21 22:53N 47°34' W 122°38'3 9.1
2018-Jun-21 22:31N 47°36' W 122°33'713.1
2018-Jun-21 22:00N 47°36' W 122°24'2 3.5
2018-Jun-21 21:24N 47°36' W 122°20'614.3
2018-Jun-21 21:01N 47°35' W 122°28'6 9.1
2018-Jun-21 20:19N 47°34' W 122°38'411.4
2018-Jun-21 20:01N 47°36' W 122°33'713.4
2018-Jun-21 19:30N 47°36' W 122°23'1 2.5
2018-Jun-21 19:00N 47°36' W 122°21'815.4
2018-Jun-21 18:30N 47°35' W 122°32'4 7.0
2018-Jun-21 18:00N 47°34' W 122°38'4 9.1
2018-Jun-21 17:31N 47°34' W 122°31'710.3
2018-Jun-21 16:47N 47°36' W 122°20'2 6.3
2018-Jun-21 16:30N 47°36' W 122°23'714.2
2018-Jun-21 16:00N 47°35' W 122°34'3 6.4
2018-Jun-21 15:31N 47°34' W 122°37'611.1
2018-Jun-21 15:00N 47°35' W 122°29'610.5
2018-Jun-21 14:25N 47°36' W 122°20'3 7.7
2018-Jun-21 14:00N 47°36' W 122°25'714.3
2018-Jun-21 13:30N 47°34' W 122°36'2 2.9
2018-Jun-21 13:00N 47°34' W 122°38'0 0.0
2018-Jun-21 12:30N 47°34' W 122°38'0 0.0
2018-Jun-21 12:01N 47°34' W 122°38'0 0.0
2018-Jun-21 11:30N 47°34' W 122°38'0 0.0
2018-Jun-21 10:59N 47°34' W 122°38'0 0.0
2018-Jun-21 10:30N 47°34' W 122°38'0 0.0
2018-Jun-21 10:00N 47°34' W 122°38'0 0.0
2018-Jun-21 09:30N 47°34' W 122°38'0 0.0
2018-Jun-21 09:00N 47°34' W 122°38'0 0.0
2018-Jun-21 08:30N 47°34' W 122°38'0 0.0
2018-Jun-21 08:00N 47°34' W 122°38'0 0.0
2018-Jun-21 07:30N 47°34' W 122°38'0 0.0
2018-Jun-21 07:00N 47°34' W 122°38'0 0.0
2018-Jun-21 06:30N 47°34' W 122°38'510.6
2018-Jun-21 06:01N 47°34' W 122°30'7 6.4
2018-Jun-21 04:59N 47°36' W 122°20'715.4
2018-Jun-21 04:30N 47°34' W 122°31'5 6.6
2018-Jun-21 03:48N 47°34' W 122°38'311.4
2018-Jun-21 03:31N 47°36' W 122°33'713.7
2018-Jun-21 03:00N 47°36' W 122°23'1 2.2
2018-Jun-21 02:30N 47°36' W 122°22'715.0
2018-Jun-21 02:00N 47°35' W 122°33'4 6.8
2018-Jun-21 01:29N 47°34' W 122°38'510.3
2018-Jun-21 01:00N 47°34' W 122°30'713.1
2018-Jun-21 00:28N 47°36' W 122°20'2 3.4
2018-Jun-21 00:00N 47°36' W 122°23'714.3
2018-Jun-20 23:31N 47°36' W 122°33'3 6.5
2018-Jun-20 22:59N 47°34' W 122°38'4 7.5
2018-Jun-20 22:30N 47°36' W 122°33'612.8
2018-Jun-20 22:00N 47°36' W 122°24'2 4.1
2018-Jun-20 21:30N 47°36' W 122°20'714.5
2018-Jun-20 21:01N 47°34' W 122°30'5 9.4
2018-Jun-20 20:29N 47°34' W 122°38'4 7.7
2018-Jun-20 20:00N 47°35' W 122°33'714.0
2018-Jun-20 19:30N 47°36' W 122°22'1 2.4
2018-Jun-20 19:00N 47°36' W 122°24'714.1
2018-Jun-20 18:30N 47°35' W 122°34'1 2.4
2018-Jun-20 17:57N 47°34' W 122°36'511.0
2018-Jun-20 17:31N 47°35' W 122°29'6 6.8
2018-Jun-20 16:40N 47°36' W 122°20'214.5
2018-Jun-20 16:30N 47°36' W 122°24'713.3
2018-Jun-20 16:00N 47°35' W 122°34'3 6.0
2018-Jun-20 15:30N 47°34' W 122°38'611.1
2018-Jun-20 15:00N 47°34' W 122°29'612.4
2018-Jun-20 14:30N 47°36' W 122°20'3 6.2
2018-Jun-20 14:00N 47°36' W 122°25'714.0
2018-Jun-20 13:30N 47°35' W 122°35'2 3.6
2018-Jun-20 13:00N 47°34' W 122°38'0 0.0
2018-Jun-20 12:30N 47°34' W 122°38'0 0.0
2018-Jun-20 12:00N 47°34' W 122°38'0 0.0
2018-Jun-20 11:30N 47°34' W 122°38'0 0.0
2018-Jun-20 11:00N 47°34' W 122°38'0 0.0
2018-Jun-20 10:30N 47°34' W 122°38'0 0.0
2018-Jun-20 10:00N 47°34' W 122°38'0 0.0
2018-Jun-20 09:30N 47°34' W 122°38'0 0.0
2018-Jun-20 09:00N 47°34' W 122°38'0 0.0
2018-Jun-20 08:30N 47°34' W 122°38'0 0.0
2018-Jun-20 08:00N 47°34' W 122°38'0 0.0
2018-Jun-20 07:30N 47°34' W 122°38'0 0.0
2018-Jun-20 07:00N 47°34' W 122°38'0 0.0
2018-Jun-20 06:30N 47°34' W 122°38'510.1
2018-Jun-20 06:01N 47°34' W 122°30'713.6
2018-Jun-20 05:30N 47°36' W 122°20'0 0.0
2018-Jun-20 04:58N 47°36' W 122°20'613.9
2018-Jun-20 04:30N 47°34' W 122°29'611.0
2018-Jun-20 04:00N 47°34' W 122°38'3 6.7
2018-Jun-20 03:31N 47°36' W 122°33'713.6
2018-Jun-20 03:00N 47°36' W 122°23'1 1.9
2018-Jun-20 02:30N 47°36' W 122°22'714.4
2018-Jun-20 02:01N 47°35' W 122°33'4 6.8
2018-Jun-20 01:28N 47°34' W 122°38'510.1
2018-Jun-20 01:00N 47°34' W 122°31'713.9
2018-Jun-20 00:29N 47°36' W 122°20'2 4.0
2018-Jun-20 00:00N 47°36' W 122°23'713.9
2018-Jun-19 23:29N 47°35' W 122°34'3 6.0
2018-Jun-19 23:00N 47°34' W 122°38'3 5.8
2018-Jun-19 22:31N 47°35' W 122°34'713.8
2018-Jun-19 22:01N 47°36' W 122°24'2 4.0
2018-Jun-19 21:25N 47°36' W 122°20'613.6
2018-Jun-19 21:00N 47°34' W 122°28'6 9.2
2018-Jun-19 20:20N 47°34' W 122°38'411.4
2018-Jun-19 20:00N 47°36' W 122°33'713.2
2018-Jun-19 19:30N 47°36' W 122°23'1 2.3
2018-Jun-19 19:00N 47°36' W 122°21'815.3
2018-Jun-19 18:30N 47°35' W 122°33'4 7.2
2018-Jun-19 18:00N 47°34' W 122°37'612.7
2018-Jun-19 17:30N 47°35' W 122°28'510.4
2018-Jun-19 16:59N 47°36' W 122°20'3 6.0
2018-Jun-19 16:30N 47°36' W 122°25'713.5
2018-Jun-19 16:00N 47°35' W 122°35'2 4.4
2018-Jun-19 15:30N 47°34' W 122°38'510.9
2018-Jun-19 15:01N 47°34' W 122°30'611.9
2018-Jun-19 14:28N 47°36' W 122°20'4 7.9
2018-Jun-19 14:00N 47°36' W 122°26'713.6
2018-Jun-19 13:30N 47°34' W 122°36'1 2.6
2018-Jun-19 13:00N 47°34' W 122°38'0 0.0
2018-Jun-19 12:30N 47°34' W 122°38'0 0.0
2018-Jun-19 12:01N 47°34' W 122°38'0 0.0
2018-Jun-19 11:31N 47°34' W 122°38'0 0.0
2018-Jun-19 11:00N 47°34' W 122°38'0 0.0
2018-Jun-19 10:30N 47°34' W 122°38'0 0.0
2018-Jun-19 10:01N 47°34' W 122°38'0 0.0
2018-Jun-19 09:30N 47°34' W 122°38'0 0.0
2018-Jun-19 09:00N 47°34' W 122°38'0 0.0
2018-Jun-19 08:31N 47°34' W 122°38'0 0.0
2018-Jun-19 07:58N 47°34' W 122°38'0 0.0
2018-Jun-19 07:30N 47°34' W 122°38'0 0.0
2018-Jun-19 07:00N 47°34' W 122°38'0 0.0
2018-Jun-19 06:30N 47°34' W 122°38'4 9.2
2018-Jun-19 06:01N 47°34' W 122°31'7 6.4
2018-Jun-19 04:53N 47°36' W 122°21'616.1
2018-Jun-19 04:31N 47°34' W 122°29'611.2
2018-Jun-19 04:00N 47°34' W 122°38'2 4.9
2018-Jun-19 03:30N 47°35' W 122°35'714.7
2018-Jun-19 03:00N 47°36' W 122°24'1 2.0
2018-Jun-19 02:30N 47°36' W 122°22'714.2
2018-Jun-19 02:00N 47°35' W 122°33'4 6.9
2018-Jun-19 01:29N 47°34' W 122°38'510.5
2018-Jun-19 01:00N 47°34' W 122°30'713.8
2018-Jun-19 00:30N 47°36' W 122°20'2 3.0
2018-Jun-19 00:00N 47°36' W 122°23'714.2
2018-Jun-18 23:30N 47°36' W 122°33'4 6.8
2018-Jun-18 22:59N 47°34' W 122°38'3 7.2
2018-Jun-18 22:30N 47°36' W 122°33'713.6
2018-Jun-18 22:00N 47°36' W 122°23'2 3.2
2018-Jun-18 21:30N 47°36' W 122°21'815.9
2018-Jun-18 21:00N 47°35' W 122°32'4 7.2
2018-Jun-18 20:30N 47°34' W 122°38'4 8.7
2018-Jun-18 20:01N 47°34' W 122°31'815.0
2018-Jun-18 19:31N 47°36' W 122°20'1 1.5
2018-Jun-18 19:01N 47°36' W 122°21'815.0
2018-Jun-18 18:31N 47°35' W 122°33'4 7.3
2018-Jun-18 18:00N 47°34' W 122°38'5 9.1
2018-Jun-18 17:31N 47°34' W 122°31'7 8.6
2018-Jun-18 16:39N 47°36' W 122°20'213.7
2018-Jun-18 16:30N 47°36' W 122°24'713.9
2018-Jun-18 16:00N 47°35' W 122°34'3 5.9
2018-Jun-18 15:30N 47°34' W 122°37'611.7
2018-Jun-18 15:00N 47°35' W 122°29'6 8.3
2018-Jun-18 14:17N 47°36' W 122°20'310.8
2018-Jun-18 14:00N 47°36' W 122°25'713.6
2018-Jun-18 13:30N 47°35' W 122°35'2 4.2
2018-Jun-18 13:00N 47°34' W 122°38'0 0.0
2018-Jun-18 12:30N 47°34' W 122°38'0 0.0
2018-Jun-18 12:00N 47°34' W 122°38'0 0.0
2018-Jun-18 11:30N 47°34' W 122°38'0 0.0
2018-Jun-18 11:00N 47°34' W 122°38'0 0.0
2018-Jun-18 10:30N 47°34' W 122°38'0 0.0
2018-Jun-18 10:00N 47°34' W 122°38'0 0.0
2018-Jun-18 09:30N 47°34' W 122°38'0 0.0
2018-Jun-18 09:00N 47°34' W 122°38'3 6.9
2018-Jun-18 08:31N 47°36' W 122°33'713.0
2018-Jun-18 08:00N 47°36' W 122°24'2 3.4
2018-Jun-18 07:30N 47°36' W 122°21'815.4
2018-Jun-18 07:01N 47°35' W 122°32'3 6.3
2018-Jun-18 06:30N 47°34' W 122°37'612.9
2018-Jun-18 06:00N 47°35' W 122°27'5 8.9
2018-Jun-18 05:28N 47°36' W 122°20'612.0
2018-Jun-18 05:00N 47°34' W 122°28'612.6
2018-Jun-18 04:30N 47°34' W 122°37'2 4.4
2018-Jun-18 04:01N 47°35' W 122°35'714.5
2018-Jun-18 03:31N 47°36' W 122°24'2 3.6
2018-Jun-18 03:00N 47°36' W 122°21'815.1
2018-Jun-18 02:30N 47°35' W 122°33'4 7.0
2018-Jun-18 02:00N 47°34' W 122°38'4 7.6
2018-Jun-18 01:30N 47°35' W 122°32'815.5
2018-Jun-18 01:01N 47°36' W 122°21'0 0.4
2018-Jun-18 00:30N 47°36' W 122°21'815.9
2018-Jun-18 00:00N 47°35' W 122°32'4 5.0
2018-Jun-17 23:18N 47°34' W 122°38'312.2
2018-Jun-17 23:01N 47°36' W 122°33'713.8
2018-Jun-17 22:30N 47°36' W 122°23'2 3.3
2018-Jun-17 21:59N 47°36' W 122°20'714.0
2018-Jun-17 21:30N 47°34' W 122°30'5 9.9
2018-Jun-17 20:59N 47°34' W 122°38'2 4.6
2018-Jun-17 20:30N 47°35' W 122°35'611.8
2018-Jun-17 20:00N 47°35' W 122°26'4 7.9
2018-Jun-17 19:30N 47°36' W 122°20'4 7.1
2018-Jun-17 19:00N 47°35' W 122°25'714.2
2018-Jun-17 18:29N 47°34' W 122°36'0 0.7
2018-Jun-17 18:00N 47°34' W 122°37'611.4
2018-Jun-17 17:30N 47°35' W 122°28'6 8.2
2018-Jun-17 16:50N 47°36' W 122°20'515.0
2018-Jun-17 16:31N 47°35' W 122°27'713.9
2018-Jun-17 16:00N 47°34' W 122°37'0 0.1
2018-Jun-17 15:30N 47°34' W 122°38'611.1
2018-Jun-17 15:00N 47°35' W 122°29'6 8.5
2018-Jun-17 14:16N 47°36' W 122°20'311.6
2018-Jun-17 14:00N 47°36' W 122°25'713.7
2018-Jun-17 13:30N 47°35' W 122°35'2 4.2
2018-Jun-17 13:00N 47°34' W 122°38'0 0.0
2018-Jun-17 12:30N 47°34' W 122°38'0 0.0
2018-Jun-17 12:01N 47°34' W 122°38'0 0.0
2018-Jun-17 11:30N 47°34' W 122°38'0 0.0
2018-Jun-17 11:00N 47°34' W 122°38'0 0.0
2018-Jun-17 10:30N 47°34' W 122°38'0 0.0
2018-Jun-17 10:00N 47°34' W 122°38'0 0.0
2018-Jun-17 09:29N 47°34' W 122°38'0 0.0
2018-Jun-17 08:58N 47°34' W 122°38'4 8.1
2018-Jun-17 08:31N 47°35' W 122°33'713.5
2018-Jun-17 08:01N 47°36' W 122°23'0 0.3
2018-Jun-17 07:31N 47°36' W 122°23'714.1
2018-Jun-17 07:01N 47°36' W 122°33'4 7.2
2018-Jun-17 06:30N 47°34' W 122°38'510.5
2018-Jun-17 06:00N 47°34' W 122°30'7 8.4
2018-Jun-17 05:13N 47°36' W 122°20'1 2.7
2018-Jun-17 05:00N 47°36' W 122°21'815.2
2018-Jun-17 04:30N 47°35' W 122°32'4 7.2
2018-Jun-17 04:00N 47°34' W 122°38'4 8.1
2018-Jun-17 03:30N 47°34' W 122°32'815.6
2018-Jun-17 03:00N 47°36' W 122°20'3 5.7
2018-Jun-17 02:31N 47°36' W 122°25'612.1
2018-Jun-17 02:01N 47°36' W 122°33'3 6.1
2018-Jun-17 01:28N 47°34' W 122°38'4 9.1
2018-Jun-17 01:00N 47°34' W 122°31'811.3
2018-Jun-17 00:20N 47°36' W 122°20'3 9.9
2018-Jun-17 00:01N 47°36' W 122°25'612.2
2018-Jun-16 23:31N 47°35' W 122°34'3 5.3
2018-Jun-16 23:00N 47°34' W 122°38'4 9.1
2018-Jun-16 22:30N 47°34' W 122°31'714.8
2018-Jun-16 22:00N 47°36' W 122°20'2 5.0
2018-Jun-16 21:30N 47°36' W 122°24'714.1
2018-Jun-16 21:00N 47°35' W 122°34'2 5.0
2018-Jun-16 20:30N 47°34' W 122°38'4 8.2
2018-Jun-16 20:00N 47°34' W 122°31'815.2
2018-Jun-16 19:30N 47°36' W 122°20'2 3.9
2018-Jun-16 19:00N 47°36' W 122°23'714.4
2018-Jun-16 18:30N 47°35' W 122°34'3 5.6
2018-Jun-16 17:58N 47°34' W 122°38'4 9.6
2018-Jun-16 17:30N 47°34' W 122°31'714.7
2018-Jun-16 17:00N 47°36' W 122°20'2 3.3
2018-Jun-16 16:31N 47°36' W 122°23'714.4
2018-Jun-16 16:01N 47°36' W 122°33'3 6.6
2018-Jun-16 15:30N 47°34' W 122°37'611.6
2018-Jun-16 15:01N 47°35' W 122°29'611.6
2018-Jun-16 14:30N 47°36' W 122°20'3 6.5
2018-Jun-16 14:00N 47°36' W 122°25'713.9
2018-Jun-16 13:30N 47°35' W 122°35'2 3.6
2018-Jun-16 13:00N 47°34' W 122°38'0 0.0
2018-Jun-16 12:30N 47°34' W 122°38'0 0.0
2018-Jun-16 11:58N 47°34' W 122°38'0 0.0
2018-Jun-16 11:29N 47°34' W 122°38'0 0.0
2018-Jun-16 11:00N 47°34' W 122°38'0 0.0
2018-Jun-16 10:30N 47°34' W 122°38'0 0.0
2018-Jun-16 10:00N 47°34' W 122°38'0 0.0
2018-Jun-16 09:30N 47°34' W 122°38'0 0.0
2018-Jun-16 09:00N 47°34' W 122°38'4 7.2
2018-Jun-16 08:31N 47°36' W 122°33'713.4
2018-Jun-16 08:00N 47°36' W 122°23'1 2.8
2018-Jun-16 07:30N 47°36' W 122°21'815.4
2018-Jun-16 07:00N 47°35' W 122°32'4 7.1
2018-Jun-16 06:30N 47°34' W 122°38'5 9.2
2018-Jun-16 06:00N 47°34' W 122°31'710.7
2018-Jun-16 05:19N 47°36' W 122°20'0 0.0
2018-Jun-16 04:57N 47°36' W 122°20'613.7
2018-Jun-16 04:30N 47°34' W 122°29'6 9.3
2018-Jun-16 03:53N 47°34' W 122°38'4 9.7
2018-Jun-16 03:30N 47°36' W 122°33'713.5
2018-Jun-16 03:00N 47°36' W 122°23'0 0.5
2018-Jun-16 02:30N 47°36' W 122°23'713.2
2018-Jun-16 02:01N 47°36' W 122°33'4 7.1
2018-Jun-16 01:30N 47°34' W 122°38'611.8
2018-Jun-16 01:00N 47°34' W 122°29'611.2
2018-Jun-16 00:28N 47°36' W 122°20'3 7.0
2018-Jun-16 00:00N 47°35' W 122°25'611.9
2018-Jun-15 23:30N 47°35' W 122°34'3 5.8
2018-Jun-15 23:00N 47°34' W 122°38'3 5.9
2018-Jun-15 22:30N 47°35' W 122°34'714.0
2018-Jun-15 22:00N 47°36' W 122°24'2 4.2
2018-Jun-15 21:31N 47°36' W 122°20'714.1
2018-Jun-15 21:00N 47°34' W 122°30'5 9.3
2018-Jun-15 20:29N 47°34' W 122°38'4 7.8
2018-Jun-15 20:00N 47°35' W 122°33'612.9
2018-Jun-15 19:30N 47°36' W 122°23'1 1.9
2018-Jun-15 19:00N 47°36' W 122°22'815.0
2018-Jun-15 18:30N 47°36' W 122°33'4 7.2
2018-Jun-15 18:00N 47°34' W 122°38'5 9.5
2018-Jun-15 17:30N 47°34' W 122°31'714.2
2018-Jun-15 17:00N 47°36' W 122°20'2 4.0
2018-Jun-15 16:31N 47°36' W 122°23'814.9
2018-Jun-15 16:00N 47°35' W 122°34'3 5.0
2018-Jun-15 15:30N 47°33' W 122°37'611.3
2018-Jun-15 15:00N 47°35' W 122°29'612.0
2018-Jun-15 14:30N 47°36' W 122°20'3 7.0
2018-Jun-15 14:00N 47°35' W 122°25'713.8
2018-Jun-15 13:30N 47°34' W 122°36'2 3.0
2018-Jun-15 13:00N 47°34' W 122°38'0 0.0
2018-Jun-15 12:30N 47°34' W 122°38'0 0.0
2018-Jun-15 12:00N 47°34' W 122°38'0 0.0
2018-Jun-15 11:27N 47°34' W 122°38'0 0.0
2018-Jun-15 11:00N 47°34' W 122°38'0 0.0
2018-Jun-15 10:31N 47°34' W 122°38'0 0.0
2018-Jun-15 10:00N 47°34' W 122°38'0 0.0
2018-Jun-15 09:30N 47°34' W 122°38'0 0.0
2018-Jun-15 09:00N 47°34' W 122°38'4 7.5
2018-Jun-15 08:30N 47°35' W 122°32'612.6
2018-Jun-15 08:01N 47°36' W 122°23'1 1.4
2018-Jun-15 07:30N 47°36' W 122°22'714.4
2018-Jun-15 07:01N 47°36' W 122°33'4 7.0
2018-Jun-15 06:30N 47°34' W 122°37'510.4
2018-Jun-15 06:00N 47°34' W 122°30'712.5
2018-Jun-15 05:28N 47°36' W 122°20'0 0.0
2018-Jun-15 05:00N 47°36' W 122°20'611.6
2018-Jun-15 04:30N 47°34' W 122°28'612.2
2018-Jun-15 04:00N 47°34' W 122°38'4 7.6
2018-Jun-15 03:31N 47°35' W 122°33'612.4
2018-Jun-15 03:00N 47°36' W 122°23'0 0.8
2018-Jun-15 02:30N 47°36' W 122°23'714.1
2018-Jun-15 02:01N 47°36' W 122°33'4 7.0
2018-Jun-15 01:31N 47°34' W 122°38'611.1
2018-Jun-15 01:01N 47°34' W 122°29'612.4
2018-Jun-15 00:30N 47°36' W 122°20'3 6.4
2018-Jun-15 00:01N 47°36' W 122°25'612.3
2018-Jun-14 23:31N 47°35' W 122°34'3 5.1
2018-Jun-14 22:59N 47°34' W 122°38'0 0.0
2018-Jun-14 22:22N 47°34' W 122°38'410.0
2018-Jun-14 22:00N 47°36' W 122°33'510.6
2018-Jun-14 21:30N 47°31' W 122°30'510.4
2018-Jun-14 21:00N 47°36' W 122°33'2 4.0
2018-Jun-14 20:30N 47°34' W 122°35'2 4.5
2018-Jun-14 20:01N 47°35' W 122°32'713.9
2018-Jun-14 19:31N 47°36' W 122°22'0 0.6
2018-Jun-14 19:00N 47°36' W 122°23'713.7
2018-Jun-14 18:31N 47°35' W 122°33'4 7.2
2018-Jun-14 18:00N 47°34' W 122°38'5 9.7
2018-Jun-14 17:30N 47°34' W 122°30'714.0
2018-Jun-14 17:00N 47°36' W 122°20'2 4.1
2018-Jun-14 16:30N 47°36' W 122°23'814.9
2018-Jun-14 16:00N 47°35' W 122°35'2 4.9
2018-Jun-14 15:30N 47°33' W 122°37'611.1
2018-Jun-14 15:00N 47°35' W 122°29'612.1
2018-Jun-14 14:30N 47°36' W 122°20'3 5.9
2018-Jun-14 14:00N 47°36' W 122°25'714.0
2018-Jun-14 13:30N 47°35' W 122°35'2 3.9
2018-Jun-14 13:00N 47°34' W 122°38'0 0.0
2018-Jun-14 12:29N 47°34' W 122°38'0 0.0
2018-Jun-14 11:59N 47°34' W 122°38'0 0.0
2018-Jun-14 11:30N 47°34' W 122°38'0 0.0
2018-Jun-14 11:00N 47°34' W 122°38'0 0.0
2018-Jun-14 10:30N 47°34' W 122°38'0 0.0
2018-Jun-14 10:00N 47°34' W 122°38'0 0.0
2018-Jun-14 09:30N 47°34' W 122°38'0 0.0
2018-Jun-14 09:00N 47°34' W 122°38'0 0.0
2018-Jun-14 08:30N 47°34' W 122°38'0 0.0
2018-Jun-14 08:00N 47°34' W 122°38'0 0.0
2018-Jun-14 07:30N 47°34' W 122°38'0 0.0
2018-Jun-14 07:00N 47°34' W 122°38'0 0.0
2018-Jun-14 06:30N 47°34' W 122°38'5 9.5
2018-Jun-14 06:00N 47°34' W 122°31'714.2
2018-Jun-14 05:30N 47°36' W 122°20'0 0.0
2018-Jun-14 05:00N 47°36' W 122°20'612.1
2018-Jun-14 04:30N 47°34' W 122°29'610.9
2018-Jun-14 03:58N 47°34' W 122°38'4 7.8
2018-Jun-14 03:30N 47°36' W 122°33'  
Track history (hours):
 
Tides and Currents Weather Stations Pressure Air Temp Water Temp Dewpoint Dewpoint Depression Visibility Wind Speed Wind Dir Waves Ship Positions

Hyak

Owner: WASHINGTON, STATE OF; Dept. of Transportation, OLYMPIA, WA. More information available from US FCC via Universal Licensing System and Coast Guard Vessel Documentation Center.

Last reported at 2018-Jun-24 03:29 UTC. Time now 2018-Jun-24 03:34 UTC.
Position N 48°30' W 122°41'.

Length 116 m; draft 5.6 m.

Type: Passenger vessel. MMSI: 366773030.

Date/timePositionNaut miles runAvg speedWind from/ knotsBaromVisibWave heightAir tempDewpointWater temp
2018-Jun-24 03:29N 48°30' W 122°41'0 0.0
2018-Jun-23 21:29N 48°30' W 122°41'0 0.6
2018-Jun-23 20:58N 48°31' W 122°40'3113.5
2018-Jun-23 18:40N 47°60' W 122°36'415.1
2018-Jun-23 18:25N 47°57' W 122°32'716.3
2018-Jun-23 18:00N 47°51' W 122°27'917.1
2018-Jun-23 17:30N 47°43' W 122°27'714.9
2018-Jun-23 17:00N 47°36' W 122°21'2 3.5
2018-Jun-23 16:30N 47°36' W 122°23'715.0
2018-Jun-23 16:00N 47°35' W 122°34'3 5.0
2018-Jun-23 15:30N 47°33' W 122°37'611.6
2018-Jun-23 15:00N 47°35' W 122°29'611.8
2018-Jun-23 14:30N 47°36' W 122°20'3 6.1
2018-Jun-23 14:00N 47°36' W 122°25'713.4
2018-Jun-23 13:30N 47°35' W 122°35'2 4.5
2018-Jun-23 12:59N 47°34' W 122°38'0 0.0
2018-Jun-23 12:30N 47°34' W 122°38'0 0.0
2018-Jun-23 11:58N 47°34' W 122°38'0 0.0
2018-Jun-23 11:25N 47°34' W 122°38'0 0.0
2018-Jun-23 10:58N 47°34' W 122°38'0 0.0
2018-Jun-23 10:30N 47°34' W 122°38'0 0.0
2018-Jun-23 10:00N 47°34' W 122°38'0 0.0
2018-Jun-23 09:30N 47°34' W 122°38'0 0.0
2018-Jun-23 08:59N 47°34' W 122°38'510.4
2018-Jun-23 08:30N 47°34' W 122°30'713.7
2018-Jun-23 08:00N 47°36' W 122°20'2 3.5
2018-Jun-23 07:30N 47°36' W 122°23'613.0
2018-Jun-23 07:00N 47°35' W 122°32'4 5.7
2018-Jun-23 06:23N 47°33' W 122°37'411.5
2018-Jun-23 06:01N 47°34' W 122°31'714.9
2018-Jun-23 05:30N 47°36' W 122°20'0 0.0
2018-Jun-23 05:00N 47°36' W 122°20'611.9
2018-Jun-23 04:30N 47°34' W 122°29'6 8.5
2018-Jun-23 03:48N 47°34' W 122°38'311.2
2018-Jun-23 03:30N 47°36' W 122°34'713.5
2018-Jun-23 03:00N 47°36' W 122°24'1 2.5
2018-Jun-23 02:31N 47°36' W 122°22'714.7
2018-Jun-23 02:00N 47°35' W 122°33'4 6.7
2018-Jun-23 01:28N 47°34' W 122°38'4 9.7
2018-Jun-23 01:01N 47°34' W 122°31'714.8
2018-Jun-23 00:30N 47°36' W 122°20'2 3.4
2018-Jun-23 00:00N 47°36' W 122°23'714.2
2018-Jun-22 23:31N 47°36' W 122°33'3 4.1
2018-Jun-22 22:41N 47°34' W 122°37'314.5
2018-Jun-22 22:30N 47°35' W 122°34'714.2
2018-Jun-22 22:01N 47°36' W 122°24'2 4.8
2018-Jun-22 21:30N 47°36' W 122°20'713.2
2018-Jun-22 21:00N 47°34' W 122°30'510.2
2018-Jun-22 20:29N 47°34' W 122°38'4 7.8
2018-Jun-22 20:01N 47°35' W 122°33'713.5
2018-Jun-22 19:30N 47°36' W 122°23'1 1.8
2018-Jun-22 19:01N 47°36' W 122°21'815.1
2018-Jun-22 18:30N 47°35' W 122°32'4 7.0
2018-Jun-22 17:59N 47°34' W 122°38'4 9.0
2018-Jun-22 17:31N 47°34' W 122°31'814.8
2018-Jun-22 17:00N 47°36' W 122°20'2 4.2
2018-Jun-22 16:30N 47°36' W 122°24'713.7
2018-Jun-22 16:00N 47°36' W 122°33'3 6.5
2018-Jun-22 15:30N 47°34' W 122°37'611.6
2018-Jun-22 15:00N 47°35' W 122°29'612.0
2018-Jun-22 14:30N 47°36' W 122°20'3 5.4
2018-Jun-22 14:00N 47°36' W 122°24'815.0
2018-Jun-22 13:30N 47°34' W 122°36'1 3.0
2018-Jun-22 13:00N 47°34' W 122°38'0 0.0
2018-Jun-22 12:30N 47°34' W 122°38'0 0.0
2018-Jun-22 11:58N 47°34' W 122°38'0 0.0
2018-Jun-22 11:28N 47°34' W 122°38'0 0.0
2018-Jun-22 11:00N 47°34' W 122°38'0 0.0
2018-Jun-22 10:30N 47°34' W 122°38'0 0.0
2018-Jun-22 10:00N 47°34' W 122°38'0 0.0
2018-Jun-22 09:30N 47°34' W 122°38'0 0.0
2018-Jun-22 09:00N 47°34' W 122°38'3 7.0
2018-Jun-22 08:30N 47°36' W 122°33'713.6
2018-Jun-22 08:00N 47°36' W 122°23'1 1.6
2018-Jun-22 07:30N 47°36' W 122°22'714.5
2018-Jun-22 07:00N 47°35' W 122°32'4 7.2
2018-Jun-22 06:30N 47°34' W 122°38'4 8.9
2018-Jun-22 06:00N 47°34' W 122°31'714.5
2018-Jun-22 05:30N 47°36' W 122°20'0 0.0
2018-Jun-22 04:58N 47°36' W 122°20'613.3
2018-Jun-22 04:31N 47°34' W 122°29'611.3
2018-Jun-22 04:00N 47°34' W 122°38'4 7.6
2018-Jun-22 03:30N 47°35' W 122°32'714.1
2018-Jun-22 03:01N 47°36' W 122°22'0 0.8
2018-Jun-22 02:30N 47°36' W 122°22'715.0
2018-Jun-22 02:00N 47°35' W 122°33'4 7.0
2018-Jun-22 01:29N 47°34' W 122°38'5 9.7
2018-Jun-22 01:01N 47°34' W 122°31'713.9
2018-Jun-22 00:29N 47°36' W 122°20'1 2.9
2018-Jun-22 00:00N 47°36' W 122°22'714.5
2018-Jun-21 23:30N 47°36' W 122°33'4 5.6
2018-Jun-21 22:53N 47°34' W 122°38'3 9.1
2018-Jun-21 22:31N 47°36' W 122°33'713.1
2018-Jun-21 22:00N 47°36' W 122°24'2 3.5
2018-Jun-21 21:24N 47°36' W 122°20'614.3
2018-Jun-21 21:01N 47°35' W 122°28'6 9.1
2018-Jun-21 20:19N 47°34' W 122°38'411.4
2018-Jun-21 20:01N 47°36' W 122°33'713.4
2018-Jun-21 19:30N 47°36' W 122°23'1 2.5
2018-Jun-21 19:00N 47°36' W 122°21'815.4
2018-Jun-21 18:30N 47°35' W 122°32'4 7.0
2018-Jun-21 18:00N 47°34' W 122°38'4 9.1
2018-Jun-21 17:31N 47°34' W 122°31'710.3
2018-Jun-21 16:47N 47°36' W 122°20'2 6.3
2018-Jun-21 16:30N 47°36' W 122°23'714.2
2018-Jun-21 16:00N 47°35' W 122°34'3 6.4
2018-Jun-21 15:31N 47°34' W 122°37'611.1
2018-Jun-21 15:00N 47°35' W 122°29'610.5
2018-Jun-21 14:25N 47°36' W 122°20'3 7.7
2018-Jun-21 14:00N 47°36' W 122°25'714.3
2018-Jun-21 13:30N 47°34' W 122°36'2 2.9
2018-Jun-21 13:00N 47°34' W 122°38'0 0.0
2018-Jun-21 12:30N 47°34' W 122°38'0 0.0
2018-Jun-21 12:01N 47°34' W 122°38'0 0.0
2018-Jun-21 11:30N 47°34' W 122°38'0 0.0
2018-Jun-21 10:59N 47°34' W 122°38'0 0.0
2018-Jun-21 10:30N 47°34' W 122°38'0 0.0
2018-Jun-21 10:00N 47°34' W 122°38'0 0.0
2018-Jun-21 09:30N 47°34' W 122°38'0 0.0
2018-Jun-21 09:00N 47°34' W 122°38'0 0.0
2018-Jun-21 08:30N 47°34' W 122°38'0 0.0
2018-Jun-21 08:00N 47°34' W 122°38'0 0.0
2018-Jun-21 07:30N 47°34' W 122°38'0 0.0
2018-Jun-21 07:00N 47°34' W 122°38'0 0.0
2018-Jun-21 06:30N 47°34' W 122°38'510.6
2018-Jun-21 06:01N 47°34' W 122°30'7 6.4
2018-Jun-21 04:59N 47°36' W 122°20'715.4
2018-Jun-21 04:30N 47°34' W 122°31'5 6.6
2018-Jun-21 03:48N 47°34' W 122°38'311.4
2018-Jun-21 03:31N 47°36' W 122°33'713.7
2018-Jun-21 03:00N 47°36' W 122°23'1 2.2
2018-Jun-21 02:30N 47°36' W 122°22'715.0
2018-Jun-21 02:00N 47°35' W 122°33'4 6.8
2018-Jun-21 01:29N 47°34' W 122°38'510.3
2018-Jun-21 01:00N 47°34' W 122°30'713.1
2018-Jun-21 00:28N 47°36' W 122°20'2 3.4
2018-Jun-21 00:00N 47°36' W 122°23'714.3
2018-Jun-20 23:31N 47°36' W 122°33'3 6.5
2018-Jun-20 22:59N 47°34' W 122°38'4 7.5
2018-Jun-20 22:30N 47°36' W 122°33'612.8
2018-Jun-20 22:00N 47°36' W 122°24'2 4.1
2018-Jun-20 21:30N 47°36' W 122°20'714.5
2018-Jun-20 21:01N 47°34' W 122°30'5 9.4
2018-Jun-20 20:29N 47°34' W 122°38'4 7.7
2018-Jun-20 20:00N 47°35' W 122°33'714.0
2018-Jun-20 19:30N 47°36' W 122°22'1 2.4
2018-Jun-20 19:00N 47°36' W 122°24'714.1
2018-Jun-20 18:30N 47°35' W 122°34'1 2.4
2018-Jun-20 17:57N 47°34' W 122°36'511.0
2018-Jun-20 17:31N 47°35' W 122°29'6 6.8
2018-Jun-20 16:40N 47°36' W 122°20'214.5
2018-Jun-20 16:30N 47°36' W 122°24'713.3
2018-Jun-20 16:00N 47°35' W 122°34'3 6.0
2018-Jun-20 15:30N 47°34' W 122°38'611.1
2018-Jun-20 15:00N 47°34' W 122°29'612.4
2018-Jun-20 14:30N 47°36' W 122°20'3 6.2
2018-Jun-20 14:00N 47°36' W 122°25'714.0
2018-Jun-20 13:30N 47°35' W 122°35'2 3.6
2018-Jun-20 13:00N 47°34' W 122°38'0 0.0
2018-Jun-20 12:30N 47°34' W 122°38'0 0.0
2018-Jun-20 12:00N 47°34' W 122°38'0 0.0
2018-Jun-20 11:30N 47°34' W 122°38'0 0.0
2018-Jun-20 11:00N 47°34' W 122°38'0 0.0
2018-Jun-20 10:30N 47°34' W 122°38'0 0.0
2018-Jun-20 10:00N 47°34' W 122°38'0 0.0
2018-Jun-20 09:30N 47°34' W 122°38'0 0.0
2018-Jun-20 09:00N 47°34' W 122°38'0 0.0
2018-Jun-20 08:30N 47°34' W 122°38'0 0.0
2018-Jun-20 08:00N 47°34' W 122°38'0 0.0
2018-Jun-20 07:30N 47°34' W 122°38'0 0.0
2018-Jun-20 07:00N 47°34' W 122°38'0 0.0
2018-Jun-20 06:30N 47°34' W 122°38'510.1
2018-Jun-20 06:01N 47°34' W 122°30'713.6
2018-Jun-20 05:30N 47°36' W 122°20'0 0.0
2018-Jun-20 04:58N 47°36' W 122°20'613.9
2018-Jun-20 04:30N 47°34' W 122°29'611.0
2018-Jun-20 04:00N 47°34' W 122°38'3 6.7
2018-Jun-20 03:31N 47°36' W 122°33'713.6
2018-Jun-20 03:00N 47°36' W 122°23'1 1.9
2018-Jun-20 02:30N 47°36' W 122°22'714.4
2018-Jun-20 02:01N 47°35' W 122°33'4 6.8
2018-Jun-20 01:28N 47°34' W 122°38'510.1
2018-Jun-20 01:00N 47°34' W 122°31'713.9
2018-Jun-20 00:29N 47°36' W 122°20'2 4.0
2018-Jun-20 00:00N 47°36' W 122°23'713.9
2018-Jun-19 23:29N 47°35' W 122°34'3 6.0
2018-Jun-19 23:00N 47°34' W 122°38'3 5.8
2018-Jun-19 22:31N 47°35' W 122°34'713.8
2018-Jun-19 22:01N 47°36' W 122°24'2 4.0
2018-Jun-19 21:25N 47°36' W 122°20'613.6
2018-Jun-19 21:00N 47°34' W 122°28'6 9.2
2018-Jun-19 20:20N 47°34' W 122°38'411.4
2018-Jun-19 20:00N 47°36' W 122°33'713.2
2018-Jun-19 19:30N 47°36' W 122°23'1 2.3
2018-Jun-19 19:00N 47°36' W 122°21'815.3
2018-Jun-19 18:30N 47°35' W 122°33'4 7.2
2018-Jun-19 18:00N 47°34' W 122°37'612.7
2018-Jun-19 17:30N 47°35' W 122°28'510.4
2018-Jun-19 16:59N 47°36' W 122°20'3 6.0
2018-Jun-19 16:30N 47°36' W 122°25'713.5
2018-Jun-19 16:00N 47°35' W 122°35'2 4.4
2018-Jun-19 15:30N 47°34' W 122°38'510.9
2018-Jun-19 15:01N 47°34' W 122°30'611.9
2018-Jun-19 14:28N 47°36' W 122°20'4 7.9
2018-Jun-19 14:00N 47°36' W 122°26'713.6
2018-Jun-19 13:30N 47°34' W 122°36'1 2.6
2018-Jun-19 13:00N 47°34' W 122°38'0 0.0
2018-Jun-19 12:30N 47°34' W 122°38'0 0.0
2018-Jun-19 12:01N 47°34' W 122°38'0 0.0
2018-Jun-19 11:31N 47°34' W 122°38'0 0.0
2018-Jun-19 11:00N 47°34' W 122°38'0 0.0
2018-Jun-19 10:30N 47°34' W 122°38'0 0.0
2018-Jun-19 10:01N 47°34' W 122°38'0 0.0
2018-Jun-19 09:30N 47°34' W 122°38'0 0.0
2018-Jun-19 09:00N 47°34' W 122°38'0 0.0
2018-Jun-19 08:31N 47°34' W 122°38'0 0.0
2018-Jun-19 07:58N 47°34' W 122°38'0 0.0
2018-Jun-19 07:30N 47°34' W 122°38'0 0.0
2018-Jun-19 07:00N 47°34' W 122°38'0 0.0
2018-Jun-19 06:30N 47°34' W 122°38'4 9.2
2018-Jun-19 06:01N 47°34' W 122°31'7 6.4
2018-Jun-19 04:53N 47°36' W 122°21'616.1
2018-Jun-19 04:31N 47°34' W 122°29'611.2
2018-Jun-19 04:00N 47°34' W 122°38'2 4.9
2018-Jun-19 03:30N 47°35' W 122°35'714.7
2018-Jun-19 03:00N 47°36' W 122°24'1 2.0
2018-Jun-19 02:30N 47°36' W 122°22'714.2
2018-Jun-19 02:00N 47°35' W 122°33'4 6.9
2018-Jun-19 01:29N 47°34' W 122°38'510.5
2018-Jun-19 01:00N 47°34' W 122°30'713.8
2018-Jun-19 00:30N 47°36' W 122°20'2 3.0
2018-Jun-19 00:00N 47°36' W 122°23'714.2
2018-Jun-18 23:30N 47°36' W 122°33'4 6.8
2018-Jun-18 22:59N 47°34' W 122°38'3 7.2
2018-Jun-18 22:30N 47°36' W 122°33'713.6
2018-Jun-18 22:00N 47°36' W 122°23'2 3.2
2018-Jun-18 21:30N 47°36' W 122°21'815.9
2018-Jun-18 21:00N 47°35' W 122°32'4 7.2
2018-Jun-18 20:30N 47°34' W 122°38'4 8.7
2018-Jun-18 20:01N 47°34' W 122°31'815.0
2018-Jun-18 19:31N 47°36' W 122°20'1 1.5
2018-Jun-18 19:01N 47°36' W 122°21'815.0
2018-Jun-18 18:31N 47°35' W 122°33'4 7.3
2018-Jun-18 18:00N 47°34' W 122°38'5 9.1
2018-Jun-18 17:31N 47°34' W 122°31'7 8.6
2018-Jun-18 16:39N 47°36' W 122°20'213.7
2018-Jun-18 16:30N 47°36' W 122°24'713.9
2018-Jun-18 16:00N 47°35' W 122°34'3 5.9
2018-Jun-18 15:30N 47°34' W 122°37'611.7
2018-Jun-18 15:00N 47°35' W 122°29'6 8.3
2018-Jun-18 14:17N 47°36' W 122°20'310.8
2018-Jun-18 14:00N 47°36' W 122°25'713.6
2018-Jun-18 13:30N 47°35' W 122°35'2 4.2
2018-Jun-18 13:00N 47°34' W 122°38'0 0.0
2018-Jun-18 12:30N 47°34' W 122°38'0 0.0
2018-Jun-18 12:00N 47°34' W 122°38'0 0.0
2018-Jun-18 11:30N 47°34' W 122°38'0 0.0
2018-Jun-18 11:00N 47°34' W 122°38'0 0.0
2018-Jun-18 10:30N 47°34' W 122°38'0 0.0
2018-Jun-18 10:00N 47°34' W 122°38'0 0.0
2018-Jun-18 09:30N 47°34' W 122°38'0 0.0
2018-Jun-18 09:00N 47°34' W 122°38'3 6.9
2018-Jun-18 08:31N 47°36' W 122°33'713.0
2018-Jun-18 08:00N 47°36' W 122°24'2 3.4
2018-Jun-18 07:30N 47°36' W 122°21'815.4
2018-Jun-18 07:01N 47°35' W 122°32'3 6.3
2018-Jun-18 06:30N 47°34' W 122°37'612.9
2018-Jun-18 06:00N 47°35' W 122°27'5 8.9
2018-Jun-18 05:28N 47°36' W 122°20'612.0
2018-Jun-18 05:00N 47°34' W 122°28'612.6
2018-Jun-18 04:30N 47°34' W 122°37'2 4.4
2018-Jun-18 04:01N 47°35' W 122°35'714.5
2018-Jun-18 03:31N 47°36' W 122°24'2 3.6
2018-Jun-18 03:00N 47°36' W 122°21'815.1
2018-Jun-18 02:30N 47°35' W 122°33'4 7.0
2018-Jun-18 02:00N 47°34' W 122°38'4 7.6
2018-Jun-18 01:30N 47°35' W 122°32'815.5
2018-Jun-18 01:01N 47°36' W 122°21'0 0.4
2018-Jun-18 00:30N 47°36' W 122°21'815.9
2018-Jun-18 00:00N 47°35' W 122°32'4 5.0
2018-Jun-17 23:18N 47°34' W 122°38'312.2
2018-Jun-17 23:01N 47°36' W 122°33'713.8
2018-Jun-17 22:30N 47°36' W 122°23'2 3.3
2018-Jun-17 21:59N 47°36' W 122°20'714.0
2018-Jun-17 21:30N 47°34' W 122°30'5 9.9
2018-Jun-17 20:59N 47°34' W 122°38'2 4.6
2018-Jun-17 20:30N 47°35' W 122°35'611.8
2018-Jun-17 20:00N 47°35' W 122°26'4 7.9
2018-Jun-17 19:30N 47°36' W 122°20'4 7.1
2018-Jun-17 19:00N 47°35' W 122°25'714.2
2018-Jun-17 18:29N 47°34' W 122°36'0 0.7
2018-Jun-17 18:00N 47°34' W 122°37'611.4
2018-Jun-17 17:30N 47°35' W 122°28'6 8.2
2018-Jun-17 16:50N 47°36' W 122°20'515.0
2018-Jun-17 16:31N 47°35' W 122°27'713.9
2018-Jun-17 16:00N 47°34' W 122°37'0 0.1
2018-Jun-17 15:30N 47°34' W 122°38'611.1
2018-Jun-17 15:00N 47°35' W 122°29'6 8.5
2018-Jun-17 14:16N 47°36' W 122°20'311.6
2018-Jun-17 14:00N 47°36' W 122°25'713.7
2018-Jun-17 13:30N 47°35' W 122°35'2 4.2
2018-Jun-17 13:00N 47°34' W 122°38'0 0.0
2018-Jun-17 12:30N 47°34' W 122°38'0 0.0
2018-Jun-17 12:01N 47°34' W 122°38'0 0.0
2018-Jun-17 11:30N 47°34' W 122°38'0 0.0
2018-Jun-17 11:00N 47°34' W 122°38'0 0.0
2018-Jun-17 10:30N 47°34' W 122°38'0 0.0
2018-Jun-17 10:00N 47°34' W 122°38'0 0.0
2018-Jun-17 09:29N 47°34' W 122°38'0 0.0
2018-Jun-17 08:58N 47°34' W 122°38'4 8.1
2018-Jun-17 08:31N 47°35' W 122°33'713.5
2018-Jun-17 08:01N 47°36' W 122°23'0 0.3
2018-Jun-17 07:31N 47°36' W 122°23'714.1
2018-Jun-17 07:01N 47°36' W 122°33'4 7.2
2018-Jun-17 06:30N 47°34' W 122°38'510.5
2018-Jun-17 06:00N 47°34' W 122°30'7 8.4
2018-Jun-17 05:13N 47°36' W 122°20'1 2.7
2018-Jun-17 05:00N 47°36' W 122°21'815.2
2018-Jun-17 04:30N 47°35' W 122°32'4 7.2
2018-Jun-17 04:00N 47°34' W 122°38'4 8.1
2018-Jun-17 03:30N 47°34' W 122°32'815.6
2018-Jun-17 03:00N 47°36' W 122°20'3 5.7
2018-Jun-17 02:31N 47°36' W 122°25'612.1
2018-Jun-17 02:01N 47°36' W 122°33'3 6.1
2018-Jun-17 01:28N 47°34' W 122°38'4 9.1
2018-Jun-17 01:00N 47°34' W 122°31'811.3
2018-Jun-17 00:20N 47°36' W 122°20'3 9.9
2018-Jun-17 00:01N 47°36' W 122°25'612.2
2018-Jun-16 23:31N 47°35' W 122°34'3 5.3
2018-Jun-16 23:00N 47°34' W 122°38'4 9.1
2018-Jun-16 22:30N 47°34' W 122°31'714.8
2018-Jun-16 22:00N 47°36' W 122°20'2 5.0
2018-Jun-16 21:30N 47°36' W 122°24'714.1
2018-Jun-16 21:00N 47°35' W 122°34'2 5.0
2018-Jun-16 20:30N 47°34' W 122°38'4 8.2
2018-Jun-16 20:00N 47°34' W 122°31'815.2
2018-Jun-16 19:30N 47°36' W 122°20'2 3.9
2018-Jun-16 19:00N 47°36' W 122°23'714.4
2018-Jun-16 18:30N 47°35' W 122°34'3 5.6
2018-Jun-16 17:58N 47°34' W 122°38'4 9.6
2018-Jun-16 17:30N 47°34' W 122°31'714.7
2018-Jun-16 17:00N 47°36' W 122°20'2 3.3
2018-Jun-16 16:31N 47°36' W 122°23'714.4
2018-Jun-16 16:01N 47°36' W 122°33'3 6.6
2018-Jun-16 15:30N 47°34' W 122°37'611.6
2018-Jun-16 15:01N 47°35' W 122°29'611.6
2018-Jun-16 14:30N 47°36' W 122°20'3 6.5
2018-Jun-16 14:00N 47°36' W 122°25'713.9
2018-Jun-16 13:30N 47°35' W 122°35'2 3.6
2018-Jun-16 13:00N 47°34' W 122°38'0 0.0
2018-Jun-16 12:30N 47°34' W 122°38'0 0.0
2018-Jun-16 11:58N 47°34' W 122°38'0 0.0
2018-Jun-16 11:29N 47°34' W 122°38'0 0.0
2018-Jun-16 11:00N 47°34' W 122°38'0 0.0
2018-Jun-16 10:30N 47°34' W 122°38'0 0.0
2018-Jun-16 10:00N 47°34' W 122°38'0 0.0
2018-Jun-16 09:30N 47°34' W 122°38'0 0.0
2018-Jun-16 09:00N 47°34' W 122°38'4 7.2
2018-Jun-16 08:31N 47°36' W 122°33'713.4
2018-Jun-16 08:00N 47°36' W 122°23'1 2.8
2018-Jun-16 07:30N 47°36' W 122°21'815.4
2018-Jun-16 07:00N 47°35' W 122°32'4 7.1
2018-Jun-16 06:30N 47°34' W 122°38'5 9.2
2018-Jun-16 06:00N 47°34' W 122°31'710.7
2018-Jun-16 05:19N 47°36' W 122°20'0 0.0
2018-Jun-16 04:57N 47°36' W 122°20'613.7
2018-Jun-16 04:30N 47°34' W 122°29'6 9.3
2018-Jun-16 03:53N 47°34' W 122°38'4 9.7
2018-Jun-16 03:30N 47°36' W 122°33'713.5
2018-Jun-16 03:00N 47°36' W 122°23'0 0.5
2018-Jun-16 02:30N 47°36' W 122°23'713.2
2018-Jun-16 02:01N 47°36' W 122°33'4 7.1
2018-Jun-16 01:30N 47°34' W 122°38'611.8
2018-Jun-16 01:00N 47°34' W 122°29'611.2
2018-Jun-16 00:28N 47°36' W 122°20'3 7.0
2018-Jun-16 00:00N 47°35' W 122°25'611.9
2018-Jun-15 23:30N 47°35' W 122°34'3 5.8
2018-Jun-15 23:00N 47°34' W 122°38'3 5.9
2018-Jun-15 22:30N 47°35' W 122°34'714.0
2018-Jun-15 22:00N 47°36' W 122°24'2 4.2
2018-Jun-15 21:31N 47°36' W 122°20'714.1
2018-Jun-15 21:00N 47°34' W 122°30'5 9.3
2018-Jun-15 20:29N 47°34' W 122°38'4 7.8
2018-Jun-15 20:00N 47°35' W 122°33'612.9
2018-Jun-15 19:30N 47°36' W 122°23'1 1.9
2018-Jun-15 19:00N 47°36' W 122°22'815.0
2018-Jun-15 18:30N 47°36' W 122°33'4 7.2
2018-Jun-15 18:00N 47°34' W 122°38'5 9.5
2018-Jun-15 17:30N 47°34' W 122°31'714.2
2018-Jun-15 17:00N 47°36' W 122°20'2 4.0
2018-Jun-15 16:31N 47°36' W 122°23'814.9
2018-Jun-15 16:00N 47°35' W 122°34'3 5.0
2018-Jun-15 15:30N 47°33' W 122°37'611.3
2018-Jun-15 15:00N 47°35' W 122°29'612.0
2018-Jun-15 14:30N 47°36' W 122°20'3 7.0
2018-Jun-15 14:00N 47°35' W 122°25'713.8
2018-Jun-15 13:30N 47°34' W 122°36'2 3.0
2018-Jun-15 13:00N 47°34' W 122°38'0 0.0
2018-Jun-15 12:30N 47°34' W 122°38'0 0.0
2018-Jun-15 12:00N 47°34' W 122°38'0 0.0
2018-Jun-15 11:27N 47°34' W 122°38'0 0.0
2018-Jun-15 11:00N 47°34' W 122°38'0 0.0
2018-Jun-15 10:31N 47°34' W 122°38'0 0.0
2018-Jun-15 10:00N 47°34' W 122°38'0 0.0
2018-Jun-15 09:30N 47°34' W 122°38'0 0.0
2018-Jun-15 09:00N 47°34' W 122°38'4 7.5
2018-Jun-15 08:30N 47°35' W 122°32'612.6
2018-Jun-15 08:01N 47°36' W 122°23'1 1.4
2018-Jun-15 07:30N 47°36' W 122°22'714.4
2018-Jun-15 07:01N 47°36' W 122°33'4 7.0
2018-Jun-15 06:30N 47°34' W 122°37'510.4
2018-Jun-15 06:00N 47°34' W 122°30'712.5
2018-Jun-15 05:28N 47°36' W 122°20'0 0.0
2018-Jun-15 05:00N 47°36' W 122°20'611.6
2018-Jun-15 04:30N 47°34' W 122°28'612.2
2018-Jun-15 04:00N 47°34' W 122°38'4 7.6
2018-Jun-15 03:31N 47°35' W 122°33'612.4
2018-Jun-15 03:00N 47°36' W 122°23'0 0.8
2018-Jun-15 02:30N 47°36' W 122°23'714.1
2018-Jun-15 02:01N 47°36' W 122°33'4 7.0
2018-Jun-15 01:31N 47°34' W 122°38'611.1
2018-Jun-15 01:01N 47°34' W 122°29'612.4
2018-Jun-15 00:30N 47°36' W 122°20'3 6.4
2018-Jun-15 00:01N 47°36' W 122°25'612.3
2018-Jun-14 23:31N 47°35' W 122°34'3 5.1
2018-Jun-14 22:59N 47°34' W 122°38'0 0.0
2018-Jun-14 22:22N 47°34' W 122°38'410.0
2018-Jun-14 22:00N 47°36' W 122°33'510.6
2018-Jun-14 21:30N 47°31' W 122°30'510.4
2018-Jun-14 21:00N 47°36' W 122°33'2 4.0
2018-Jun-14 20:30N 47°34' W 122°35'2 4.5
2018-Jun-14 20:01N 47°35' W 122°32'713.9
2018-Jun-14 19:31N 47°36' W 122°22'0 0.6
2018-Jun-14 19:00N 47°36' W 122°23'713.7
2018-Jun-14 18:31N 47°35' W 122°33'4 7.2
2018-Jun-14 18:00N 47°34' W 122°38'5 9.7
2018-Jun-14 17:30N 47°34' W 122°30'714.0
2018-Jun-14 17:00N 47°36' W 122°20'2 4.1
2018-Jun-14 16:30N 47°36' W 122°23'814.9
2018-Jun-14 16:00N 47°35' W 122°35'2 4.9
2018-Jun-14 15:30N 47°33' W 122°37'611.1
2018-Jun-14 15:00N 47°35' W 122°29'612.1
2018-Jun-14 14:30N 47°36' W 122°20'3 5.9
2018-Jun-14 14:00N 47°36' W 122°25'714.0
2018-Jun-14 13:30N 47°35' W 122°35'2 3.9
2018-Jun-14 13:00N 47°34' W 122°38'0 0.0
2018-Jun-14 12:29N 47°34' W 122°38'0 0.0
2018-Jun-14 11:59N 47°34' W 122°38'0 0.0
2018-Jun-14 11:30N 47°34' W 122°38'0 0.0
2018-Jun-14 11:00N 47°34' W 122°38'0 0.0
2018-Jun-14 10:30N 47°34' W 122°38'0 0.0
2018-Jun-14 10:00N 47°34' W 122°38'0 0.0
2018-Jun-14 09:30N 47°34' W 122°38'0 0.0
2018-Jun-14 09:00N 47°34' W 122°38'0 0.0
2018-Jun-14 08:30N 47°34' W 122°38'0 0.0
2018-Jun-14 08:00N 47°34' W 122°38'0 0.0
2018-Jun-14 07:30N 47°34' W 122°38'0 0.0
2018-Jun-14 07:00N 47°34' W 122°38'0 0.0
2018-Jun-14 06:30N 47°34' W 122°38'5 9.5
2018-Jun-14 06:00N 47°34' W 122°31'714.2
2018-Jun-14 05:30N 47°36' W 122°20'0 0.0
2018-Jun-14 05:00N 47°36' W 122°20'612.1
2018-Jun-14 04:30N 47°34' W 122°29'610.9
2018-Jun-14 03:58N 47°34' W 122°38'4 7.8
2018-Jun-14 03:30N 47°36' W 122°33'  

Dump ship's entire track history